Terminal Aerodrome Forecast
Issued by NWS Portland, OR

Home | Current Version | Previous Version | Text Only | Print | Product List | Glossary On
Versions: 1 2 3 4 5 6 7 8 9 10 11 12 13 14 15 16 17 18 19 20 21 22 23 24 25 26 27 28 29 30 31 32 33 34 35 36 37 38 39 40 41 42
000
FTUS46 KPQR 240539
TAFAST
TAF
KAST 240539Z 2406/2506 28011KT P6SM -SHRA SCT015 OVC022
      TEMPO 2406/2408 3SM -RA SCT006 BKN015 OVC022
     FM240800 29011KT P6SM BKN028 OVC050
     FM241300 36011KT P6SM SCT028 BKN050
     FM241900 07011KT P6SM SCT030 SCT050 BKN070
     FM250000 08011G19KT P6SM SCT030 SCT060=

USA.gov is the U.S. government's official web portal to all federal, state and local government web resources and services.